• Join FlightAware (Why Join?)
  • Login
  • US Flag 
04:07AM EST


 

Airport Tracker/Info


-or-


 

Live Flight TrackerFlight Track Log ✈ ASQ4086 ✈ 07-May-2013 ✈ KVPS - KIAH

Flight Track Log - Related Links

Times and Time Zones

All times are in EDT time to prevent confusion due to time zone crossing. See the ASQ4086 flight status page for this flight to view local times or setup timezone preferences in your user account.

Time Position Orientation Groundspeed Altitude Reporting Facility
EDT Latitude Longitude Course Direction KTS MPH feet Rate Location/Type
12:22PM 30.5850 -86.4950 270° West 194 223 4,100  Level Jacksonville Center
12:23PM 30.7230 -86.6282 337° Northwest  Level FlightAware Approximate
12:23PM 30.6500 -86.4903 North 210 242 6,300  Level Jacksonville Center
12:24PM 30.8093 -86.6637 341° North  Level FlightAware Approximate
12:24PM 30.7211 -86.4881 North 231 266 8,300  Level Jacksonville Center
12:25PM 30.8139 -86.7641 264° West  Level FlightAware Approximate
12:25PM 30.7942 -86.4814 North 243 280 10,100  Level Jacksonville Center
12:26PM 30.8043 -86.8701 264° West  Level FlightAware Approximate
12:26PM 30.8800 -86.4772 North 280 322 11,100  Level Jacksonville Center
12:27PM 30.8000 -86.9764 270° West  Level FlightAware Approximate
12:27PM 30.9364 -86.5472 313° West 285 328 12,400  Level Jacksonville Center
12:28PM 30.9228 -86.6556 262° West 247 284 13,700 1,500 Climbing Jacksonville Center
12:29PM 30.9108 -86.7761 263° West 296 341 15,500 1,800 Climbing Jacksonville Center
12:30PM 30.8972 -86.8822 262° West 322 371 17,300 1,740 Climbing Jacksonville Center
12:31PM 30.8875 -86.9883 264° West 327 376 19,000 1,620 Climbing Jacksonville Center
12:32PM 30.8736 -87.0942 261° West 333 383 20,600 1,440 Climbing Jacksonville Center
12:33PM 30.8617 -87.2025 263° West 333 383 21,900 1,440 Climbing Jacksonville Center
12:36PM 30.8325 -87.4597 263° West 339 390 25,700 1,620 Climbing Houston Center
12:37PM 30.8178 -87.5861 262° West 328 377 27,700 1,740 Climbing Houston Center
12:38PM 30.8064 -87.6881 263° West 319 367 29,400 1,440 Climbing Houston Center
12:39PM 30.7936 -87.7817 261° West 314 361 30,700 1,200 Climbing Houston Center
12:40PM 30.7678 -87.8775 253° West 311 358 31,900 600 Climbing Houston Center
12:41PM 30.7342 -88.0031 253° West 338 389 32,000  Climbing Houston Center
12:42PM 30.7028 -88.1192 253° West 374 430 32,000  Level Houston Center
12:43PM 30.6725 -88.2306 252° West 397 457 32,000  Level Houston Center
12:44PM 30.6317 -88.3825 253° West 407 468 32,000  Level Houston Center
12:45PM 30.5969 -88.5100 252° West 412 474 32,000  Level Houston Center
12:46PM 30.5633 -88.6361 253° West 410 472 32,000  Level Houston Center
12:47PM 30.5275 -88.7633 252° West 412 474 32,000  Level Houston Center
12:48PM 30.4944 -88.8900 253° West 411 473 32,000  Level Houston Center
12:49PM 30.4567 -89.0250 252° West 410 472 32,000  Level Houston Center
12:50PM 30.4217 -89.1506 252° West 410 472 32,000  Level Houston Center
12:51PM 30.3881 -89.2769 253° West 410 472 32,000  Level Houston Center
12:52PM 30.3533 -89.4014 252° West 407 468 32,000  Level Houston Center
12:53PM 30.3117 -89.5519 252° West 408 470 32,000  Level Houston Center
12:54PM 30.2750 -89.6778 251° West 409 471 32,000  Level Houston Center
12:55PM 30.2369 -89.8089 251° West 414 476 32,000  Level Houston Center
12:56PM 30.2017 -89.9375 252° West 413 475 32,000  Level Houston Center
12:57PM 30.1669 -90.0614 252° West 408 470 32,000  Level Houston Center
12:58PM 30.1314 -90.1864 252° West 408 470 32,000  Level Houston Center
12:59PM 30.0972 -90.3111 252° West 408 470 32,000  Level Houston Center
01:00PM 30.0614 -90.4344 251° West 408 470 32,000  Level Houston Center
01:02PM 30.0244 -90.5581 251° West 407 468 32,000  Level Houston Center
01:03PM 29.9819 -90.7058 252° West 406 467 32,000  Level Houston Center
01:04PM 29.9494 -90.8303 253° West 406 467 32,000  Level Houston Center
01:05PM 29.9247 -90.9558 257° West 403 464 32,000  Level Houston Center
01:06PM 29.9006 -91.0825 258° West 404 465 32,000  Level Houston Center
01:07PM 29.8753 -91.2081 257° West 403 464 32,000  Level Houston Center
01:08PM 29.8503 -91.3333 257° West 403 464 32,000  Level Houston Center
01:09PM 29.8242 -91.4575 256° West 401 461 32,000  Level Houston Center
01:10PM 29.7942 -91.6075 257° West 400 460 32,000  Level Houston Center
01:11PM 29.7672 -91.7331 256° West 402 463 32,000  Level Houston Center
01:12PM 29.7447 -91.8467 257° West 402 463 32,000  Level Houston Center
01:13PM 29.7133 -91.9967 256° West 402 463 32,000  Level Houston Center
01:14PM 29.6869 -92.1231 257° West 405 466 32,000  Level Houston Center
01:15PM 29.6719 -92.2483 262° West 399 459 32,000  Level Houston Center
01:16PM 29.6611 -92.3767 264° West 401 461 32,000  Level Houston Center
01:17PM 29.6492 -92.5047 264° West 402 463 32,000  Level Houston Center
01:18PM 29.6375 -92.6333 264° West 404 465 32,000  Level Houston Center
01:19PM 29.6258 -92.7608 264° West 401 461 32,000 -60 Level Houston Center
01:20PM 29.6111 -92.9153 264° West 404 465 31,900 -720 Descending Houston Center
01:21PM 29.5997 -93.0444 264° West 405 466 30,600 -1,380 Descending Houston Center
01:22PM 29.5875 -93.1681 264° West 393 452 29,100 -1,500 Descending Houston Center
01:23PM 29.5767 -93.2928 264° West 392 451 27,600 -1,500 Descending Houston Center
01:24PM 29.5642 -93.4222 264° West 402 463 26,100 -1,560 Descending Houston Center
01:25PM 29.5508 -93.5522 263° West 408 470 24,400 -1,740 Descending Houston Center
01:26PM 29.5386 -93.6803 264° West 406 467 22,600 -1,980 Descending Houston Center
01:27PM 29.5236 -93.8297 263° West 396 456 20,400 -1,920 Descending Houston Center
01:28PM 29.5197 -93.9489 268° West 373 429 18,700 -1,740 Descending Houston Center
01:29PM 29.5231 -94.0653 272° West 364 419 17,000 -1,860 Descending Houston Center
01:30PM 29.5278 -94.1794 273° West 361 415 14,900 -2,040 Descending Houston Center
01:31PM 29.5303 -94.2422 273° West 332 382 13,700 -1,560 Descending Houston Center
01:31PM 29.5314 -94.2847 272° West 338 389 13,300 -660 Descending Houston Center
01:32PM 29.5400 -94.3611 277° West 322 371 13,000 -600 Descending Houston Center
01:32PM 29.5511 -94.3822 301° West 320 368 12,700 -1,380 Descending Houston Center
01:33PM 29.5731 -94.4386 294° West 314 361 11,900 -1,560 Descending Houston Center
01:33PM 29.5958 -94.4892 297° West 311 358 11,100 -1,380 Descending Houston Center
01:34PM 29.6083 -94.5206 295° West 280 322 10,500 -1,500 Descending Houston Center
01:35PM 29.6292 -94.5667 297° West 279 321 9,600 -1,620 Descending Houston Center
01:35PM 29.6439 -94.6028 295° West 267 307 8,900 -1,560 Descending Houston Center
01:36PM 29.6608 -94.6414 297° West 265 305 8,000 -1,560 Descending Houston Center
01:36PM 29.6886 -94.6739 315° West 253 291 7,200 -1,380 Descending Houston Center
01:37PM 29.7136 -94.6939 325° Northwest 263 303 6,600 -1,200 Descending Houston Center
01:37PM 29.7458 -94.7222 323° Northwest 259 298 6,000 -1,080 Descending Houston Center
01:38PM 29.7706 -94.7419 325° Northwest 256 295 5,500 -1,140 Descending Houston Center
01:38PM 29.8072 -94.7722 324° Northwest 256 295 4,900 -1,020 Descending Houston Center
01:39PM 29.8269 -94.7931 318° Northwest 258 297 4,500 -900 Descending Houston Center
01:39PM 29.8475 -94.8417 296° West 247 284 4,000 -540 Descending Houston Center
01:40PM 29.8636 -94.8800 296° West 252 290 4,000  Level Houston Center
01:40PM 29.8775 -94.9128 296° West 249 287 4,000  Level Houston Center
01:41PM 29.8958 -94.9519 298° West 254 292 4,000 -120 Level Houston Center
01:41PM 29.9094 -94.9858 295° West 259 298 3,900 -600 Descending Houston Center
01:42PM 29.9283 -95.0242 300° West 256 295 3,400 -1,080 Descending Houston Center
01:42PM 29.9464 -95.0656 297° West 242 278 2,700 -1,020 Descending Houston Center
01:43PM 29.9594 -95.0925 299° West 251 289 2,400 -780 Descending Houston Center
01:43PM 29.9756 -95.1297 297° West 237 273 2,000 -1,080 Descending Houston Center